Time;durP1;ratioP1;P1;durP2;ratioP2;P2;SDS_P1;SDS_P2;PMS_P1;PMS_P2;Temp;Humidity;BMP_temperature;BMP_pressure;BME280_temperature;BME280_humidity;BME280_pressure;Samples;Min_cycle;Max_cycle;Signal;HPM_P1;HPM_P2
2023/10/08 00:01:50;;;;;;;1999.90;999.90;;;18.50;99.90;;;;;;5103722;28;20398;-66
2023/10/08 00:04:19;;;;;;;1999.90;999.90;;;18.50;99.90;;;;;;5110281;28;20028;-66
2023/10/08 00:06:46;;;;;;;1999.90;999.90;;;18.50;99.90;;;;;;5106752;28;20034;-66
2023/10/08 00:09:12;;;;;;;;;;;18.50;99.90;;;;;;5115181;28;20418;-66
2023/10/08 00:11:40;;;;;;;1999.90;999.90;;;18.50;99.90;;;;;;5115243;28;19914;-66
2023/10/08 00:14:09;;;;;;;1999.90;999.90;;;18.40;99.90;;;;;;5114892;28;20063;-66
2023/10/08 00:16:38;;;;;;;1999.90;999.90;;;18.30;99.90;;;;;;5107162;28;20035;-66
2023/10/08 00:19:09;;;;;;;1999.90;999.90;;;18.30;99.90;;;;;;5085064;28;20076;-66
2023/10/08 00:21:37;;;;;;;1999.90;999.90;;;18.20;99.90;;;;;;5088203;28;20032;-66
2023/10/08 00:24:07;;;;;;;1999.90;999.90;;;18.30;99.90;;;;;;5113016;28;20106;-66
2023/10/08 00:26:35;;;;;;;1999.90;999.90;;;18.30;99.90;;;;;;5110727;28;20031;-66
2023/10/08 00:29:15;;;;;;;1999.90;999.90;;;18.30;99.90;;;;;;5104011;28;20058;-66
2023/10/08 00:31:45;;;;;;;1999.90;999.90;;;18.30;99.90;;;;;;5114085;28;20080;-67
2023/10/08 00:34:14;;;;;;;1999.90;999.90;;;18.20;99.90;;;;;;5116751;28;20035;-66
2023/10/08 00:36:41;;;;;;;1999.90;999.90;;;18.20;99.90;;;;;;5110223;28;20031;-66
2023/10/08 00:39:13;;;;;;;1999.90;999.90;;;18.20;99.90;;;;;;5108699;28;20299;-66
2023/10/08 00:41:43;;;;;;;1999.90;999.90;;;18.10;99.90;;;;;;5098173;28;20377;-66
2023/10/08 00:44:13;;;;;;;1999.90;999.90;;;18.10;99.90;;;;;;5098128;28;20020;-66
2023/10/08 00:46:49;;;;;;;1999.90;999.90;;;18.00;99.90;;;;;;5116037;28;20035;-67
2023/10/08 00:52:19;;;;;;;1999.90;999.90;;;17.90;99.90;;;;;;5116191;28;20028;-73
2023/10/08 00:57:21;;;;;;;1999.90;999.90;;;17.90;99.90;;;;;;5114350;28;20047;-72
2023/10/08 00:59:52;;;;;;;1999.90;999.90;;;17.80;99.90;;;;;;5097215;28;20016;-66
2023/10/08 01:02:24;;;;;;;1999.90;999.90;;;17.80;99.90;;;;;;5091895;28;20125;-66
2023/10/08 01:04:50;;;;;;;1999.90;999.90;;;17.80;99.90;;;;;;5112530;28;20031;-66
2023/10/08 01:07:17;;;;;;;1999.90;999.90;;;17.80;99.90;;;;;;5115659;28;20446;-66
2023/10/08 01:09:48;;;;;;;1999.90;999.90;;;17.80;99.90;;;;;;5114536;28;20031;-66
2023/10/08 01:15:05;;;;;;;1999.90;999.90;;;17.70;99.90;;;;;;5109354;28;20300;-66
2023/10/08 01:17:32;;;;;;;1999.90;999.90;;;17.80;99.90;;;;;;5115172;28;20027;-66
2023/10/08 01:20:09;;;;;;;1999.90;999.90;;;17.80;99.90;;;;;;5115632;28;20105;-66
2023/10/08 01:22:34;;;;;;;;;;;17.80;99.90;;;;;;5099007;28;20031;-66
2023/10/08 01:25:02;;;;;;;1999.90;999.90;;;17.70;99.90;;;;;;5100332;28;19915;-66
2023/10/08 01:27:34;;;;;;;1999.90;999.90;;;17.70;99.90;;;;;;5105494;28;20027;-66
2023/10/08 01:30:18;;;;;;;1999.90;999.90;;;17.60;99.90;;;;;;5104322;28;20312;-66
2023/10/08 01:32:45;;;;;;;1999.90;999.90;;;17.60;99.90;;;;;;5115490;28;20156;-66
2023/10/08 01:35:22;;;;;;;1999.90;999.90;;;17.60;99.90;;;;;;5100250;28;20024;-66
2023/10/08 01:37:56;;;;;;;1999.90;999.90;;;17.50;99.90;;;;;;5115620;28;20024;-67
2023/10/08 01:40:22;;;;;;;1999.90;999.90;;;17.50;99.90;;;;;;5108555;28;20022;-66
2023/10/08 01:42:51;;;;;;;1999.90;999.90;;;17.40;99.90;;;;;;5115457;28;20027;-66
2023/10/08 01:45:18;;;;;;;1999.90;999.90;;;17.40;99.90;;;;;;5096423;28;20024;-67
2023/10/08 01:47:44;;;;;;;1999.90;999.90;;;17.40;99.90;;;;;;5102915;28;20068;-66
2023/10/08 01:50:21;;;;;;;1999.90;999.90;;;17.40;99.90;;;;;;5098549;28;20089;-66
2023/10/08 01:52:48;;;;;;;1999.90;999.90;;;17.30;99.90;;;;;;5112001;28;20135;-66
2023/10/08 01:55:18;;;;;;;1999.90;999.90;;;17.30;99.90;;;;;;5108924;28;20038;-67
2023/10/08 01:57:45;;;;;;;1999.90;999.90;;;17.30;99.90;;;;;;5109031;28;20030;-66
2023/10/08 02:00:12;;;;;;;1999.90;999.90;;;17.20;99.90;;;;;;5114104;28;20111;-73
2023/10/08 02:02:40;;;;;;;1999.90;999.90;;;17.30;99.90;;;;;;5113496;28;20430;-66
2023/10/08 02:05:07;;;;;;;1999.90;999.90;;;17.20;99.90;;;;;;5109166;28;20036;-66
2023/10/08 02:07:33;;;;;;;1999.90;999.90;;;17.30;99.90;;;;;;5119984;28;20030;-66
2023/10/08 02:09:59;;;;;;;1999.90;999.90;;;17.30;99.90;;;;;;5121471;28;20349;-66
2023/10/08 02:12:25;;;;;;;1999.90;999.90;;;17.30;99.90;;;;;;5113347;28;20111;-66
2023/10/08 02:14:51;;;;;;;1999.90;999.90;;;17.50;99.90;;;;;;5121302;28;20415;-66
2023/10/08 02:17:17;;;;;;;1999.90;999.90;;;17.50;99.90;;;;;;5120764;28;20031;-69
2023/10/08 02:19:43;;;;;;;1999.90;999.90;;;17.50;99.90;;;;;;5117690;28;20410;-66
2023/10/08 02:22:11;;;;;;;1999.90;999.90;;;17.60;99.90;;;;;;5114139;28;20042;-66
2023/10/08 02:24:38;;;;;;;1999.90;999.90;;;17.50;99.90;;;;;;5115030;28;20028;-66
2023/10/08 02:27:03;;;;;;;1999.90;999.90;;;17.50;99.90;;;;;;5116307;28;20429;-67
2023/10/08 02:29:30;;;;;;;1999.90;999.90;;;17.60;99.90;;;;;;5112096;27;20031;-66
2023/10/08 02:31:59;;;;;;;1999.90;999.90;;;17.60;99.90;;;;;;5117682;28;20046;-66
2023/10/08 02:34:25;;;;;;;1999.90;999.90;;;17.60;99.90;;;;;;5117771;28;20019;-74
2023/10/08 02:36:51;;;;;;;1999.90;999.90;;;17.60;99.90;;;;;;5111493;28;20035;-66
2023/10/08 02:39:21;;;;;;;1999.90;999.90;;;17.60;99.90;;;;;;5103858;28;20430;-66
2023/10/08 02:41:47;;;;;;;1999.90;999.90;;;17.60;99.90;;;;;;5115193;28;20034;-66
2023/10/08 02:44:14;;;;;;;1999.90;999.90;;;17.60;99.90;;;;;;5107979;28;20031;-66
2023/10/08 02:46:40;;;;;;;;;;;17.60;99.90;;;;;;5113382;28;20315;-66
2023/10/08 02:49:13;;;;;;;1999.90;999.90;;;17.50;99.90;;;;;;5106629;28;19912;-66
2023/10/08 02:51:44;;;;;;;1999.90;999.90;;;17.40;99.90;;;;;;5114838;28;20032;-65
2023/10/08 02:54:18;;;;;;;1999.90;999.90;;;17.20;99.90;;;;;;5110088;28;20051;-66
2023/10/08 02:56:51;;;;;;;1999.90;999.90;;;17.20;99.90;;;;;;5100167;28;20410;-66
2023/10/08 02:59:21;;;;;;;1999.90;999.90;;;17.10;99.90;;;;;;5111228;28;20024;-66
2023/10/08 03:01:49;;;;;;;1999.90;999.90;;;17.10;99.90;;;;;;5116625;28;20418;-65
2023/10/08 03:04:18;;;;;;;1999.90;999.90;;;17.00;99.90;;;;;;5112058;28;20330;-66
2023/10/08 03:06:49;;;;;;;1999.90;999.90;;;17.00;99.90;;;;;;5107435;28;20056;-65
2023/10/08 03:09:20;;;;;;;1999.90;999.90;;;17.00;99.90;;;;;;5109505;28;20038;-66
2023/10/08 03:11:48;;;;;;;1999.90;999.90;;;17.00;99.90;;;;;;5109221;28;20038;-66
2023/10/08 03:14:21;;;;;;;1999.90;999.90;;;17.00;99.90;;;;;;5089056;28;20028;-66
2023/10/08 03:17:07;;;;;;;1999.90;999.90;;;16.90;99.90;;;;;;5113850;28;20322;-66
2023/10/08 03:19:35;;;;;;;1999.90;999.90;;;16.90;99.90;;;;;;5086896;28;20031;-66
2023/10/08 03:22:04;;;;;;;1999.90;999.90;;;16.80;99.90;;;;;;5111027;28;20162;-66
2023/10/08 03:24:30;;;;;;;1999.90;999.90;;;16.90;99.90;;;;;;5109113;28;20024;-66
2023/10/08 03:29:55;;;;;;;1999.90;999.90;;;16.80;99.90;;;;;;5032940;28;20068;-74
2023/10/08 03:32:26;;;;;;;1999.90;999.90;;;16.70;99.90;;;;;;5034576;28;20025;-66
2023/10/08 03:34:54;;;;;;;1999.90;999.90;;;16.60;99.90;;;;;;5032378;28;20049;-66
2023/10/08 03:37:29;;;;;;;1999.90;999.90;;;16.60;99.90;;;;;;5029310;28;20030;-74
2023/10/08 03:40:21;;;;;;;1999.90;999.90;;;16.50;99.90;;;;;;5030481;28;20070;-66
2023/10/08 03:42:49;;;;;;;1999.90;999.90;;;16.60;99.90;;;;;;5033427;28;20034;-69
2023/10/08 03:45:22;;;;;;;1999.90;999.90;;;16.50;99.90;;;;;;5033626;28;20072;-66
2023/10/08 03:48:03;;;;;;;1999.90;999.90;;;16.40;99.90;;;;;;5032827;28;20115;-66
2023/10/08 03:50:32;;;;;;;1999.90;999.90;;;16.30;99.90;;;;;;5030138;28;20053;-66
2023/10/08 03:52:58;;;;;;;1999.90;999.90;;;16.30;99.90;;;;;;5016502;28;20084;-66
2023/10/08 03:55:27;;;;;;;1999.90;999.90;;;16.20;99.90;;;;;;5032204;28;20371;-66
2023/10/08 03:57:58;;;;;;;1999.90;999.90;;;16.10;99.90;;;;;;5032873;28;20108;-66
2023/10/08 04:00:33;;;;;;;1999.90;999.90;;;16.10;99.90;;;;;;5016601;28;20064;-65
2023/10/08 04:03:07;;;;;;;1999.90;999.90;;;16.00;99.90;;;;;;5017378;28;20030;-66
2023/10/08 04:05:44;;;;;;;1999.90;999.90;;;15.90;99.90;;;;;;5046499;28;20039;-65
2023/10/08 04:08:42;;;;;;;1999.90;999.90;;;15.90;99.90;;;;;;5110946;28;20032;-65
2023/10/08 04:11:30;;;;;;;1999.90;999.90;;;15.90;99.90;;;;;;5108726;28;20033;-65
2023/10/08 04:13:59;;;;;;;1999.90;999.90;;;15.80;99.90;;;;;;5109748;28;20035;-66
2023/10/08 04:16:27;;;;;;;1999.90;999.90;;;15.80;99.90;;;;;;5108889;28;20319;-66
2023/10/08 04:18:56;;;;;;;1999.90;999.90;;;15.60;99.90;;;;;;5103509;28;20044;-66
2023/10/08 04:21:29;;;;;;;1999.90;999.90;;;15.40;99.90;;;;;;5108943;28;20024;-66
2023/10/08 04:23:57;;;;;;;1999.90;999.90;;;15.30;99.90;;;;;;5104919;28;20028;-65
2023/10/08 04:26:23;;;;;;;1999.90;999.90;;;15.30;99.90;;;;;;5109146;28;20326;-65
2023/10/08 04:29:02;;;;;;;1999.90;999.90;;;15.30;99.90;;;;;;5094674;28;20034;-65
2023/10/08 04:31:37;;;;;;;1999.90;999.90;;;15.20;99.90;;;;;;5109408;28;20037;-65
2023/10/08 04:34:10;;;;;;;1999.90;999.90;;;15.20;99.90;;;;;;5116610;28;20288;-66
2023/10/08 04:36:39;;;;;;;1999.90;999.90;;;15.20;99.90;;;;;;5108183;28;20319;-66
2023/10/08 04:39:13;;;;;;;1999.90;999.90;;;15.20;99.90;;;;;;5108304;27;20028;-66
2023/10/08 04:41:42;;;;;;;1999.90;999.90;;;15.20;99.90;;;;;;5094163;28;20050;-66
2023/10/08 04:44:15;;;;;;;1999.90;999.90;;;15.20;99.90;;;;;;5116291;28;20032;-65
2023/10/08 04:46:51;;;;;;;1999.90;999.90;;;15.20;99.90;;;;;;5108410;28;20050;-71
2023/10/08 04:49:30;;;;;;;1999.90;999.90;;;15.10;99.90;;;;;;5112420;28;20425;-65
2023/10/08 04:52:05;;;;;;;1999.90;999.90;;;15.10;99.90;;;;;;5112588;28;20035;-65
2023/10/08 04:54:31;;;;;;;1999.90;999.90;;;15.10;99.90;;;;;;5115826;28;20023;-65
2023/10/08 04:56:57;;;;;;;1999.90;999.90;;;15.10;99.90;;;;;;5115140;28;20085;-65
2023/10/08 04:59:32;;;;;;;;;;;15.10;99.90;;;;;;5098085;28;20470;-65
2023/10/08 05:13:15;;;;;;;1999.90;999.90;;;15.00;99.90;;;;;;5107653;28;20023;-65
2023/10/08 05:15:49;;;;;;;1999.90;999.90;;;14.90;99.90;;;;;;5101514;28;20473;-64
2023/10/08 05:20:59;;;;;;;1999.90;999.90;;;14.70;99.90;;;;;;5100675;28;20026;-65
2023/10/08 05:25:58;;;;;;;1999.90;999.90;;;14.60;99.90;;;;;;5114302;28;20080;-65
2023/10/08 05:28:25;;;;;;;1999.90;999.90;;;14.60;99.90;;;;;;5106384;28;20066;-65
2023/10/08 05:31:11;;;;;;;;;;;14.50;99.90;;;;;;5097381;28;20027;-66
2023/10/08 05:36:50;;;;;;;1999.90;999.90;;;14.50;99.90;;;;;;5113573;28;20085;-65
2023/10/08 05:44:50;;;;;;;1999.90;999.90;;;14.40;99.90;;;;;;5107944;28;20039;-66
2023/10/08 05:50:18;;;;;;;1999.90;999.90;;;14.40;99.90;;;;;;5115062;28;20040;-66
2023/10/08 05:57:52;;;;;;;1999.90;999.90;;;14.30;99.90;;;;;;5115115;28;20039;-65
2023/10/08 06:00:45;;;;;;;1999.90;999.90;;;14.30;99.90;;;;;;5113401;28;20398;-66
2023/10/08 06:03:10;;;;;;;1999.90;999.90;;;14.30;99.90;;;;;;5111238;28;20039;-65
2023/10/08 06:05:43;;;;;;;1999.90;999.90;;;14.30;99.90;;;;;;5103649;28;20032;-65
2023/10/08 06:08:14;;;;;;;1999.90;999.90;;;14.30;99.90;;;;;;5089900;28;20042;-65
2023/10/08 06:18:26;;;;;;;1999.90;999.90;;;14.20;99.90;;;;;;5113171;28;20049;-66
2023/10/08 06:20:58;;;;;;;1999.90;999.90;;;14.30;99.90;;;;;;5106891;28;20038;-65
2023/10/08 06:23:25;;;;;;;1999.90;999.90;;;14.30;99.90;;;;;;5102927;28;20059;-65
2023/10/08 06:28:38;;;;;;;1999.90;999.90;;;14.30;99.90;;;;;;5108249;28;20028;-65
2023/10/08 06:31:06;;;;;;;1999.90;999.90;;;14.30;99.90;;;;;;5107088;28;20027;-65
2023/10/08 06:33:33;;;;;;;1999.90;999.90;;;14.30;99.90;;;;;;5108901;28;20353;-66
2023/10/08 06:36:13;;;;;;;1999.90;999.90;;;14.30;99.90;;;;;;5106794;28;20326;-66
2023/10/08 06:38:40;;;;;;;1999.90;999.90;;;14.30;99.90;;;;;;5112832;28;20028;-65
2023/10/08 06:41:33;;;;;;;1999.90;999.90;;;14.30;99.90;;;;;;5108123;28;20296;-66
2023/10/08 06:44:02;;;;;;;1999.90;999.90;;;14.30;99.90;;;;;;5112397;28;20048;-66
2023/10/08 06:46:32;;;;;;;1999.90;999.90;;;14.30;99.90;;;;;;5108191;28;20024;-66
2023/10/08 06:49:11;;;;;;;1999.90;999.90;;;14.30;99.90;;;;;;5118422;28;20119;-65
2023/10/08 06:51:38;;;;;;;1999.90;999.90;;;14.40;99.90;;;;;;5077246;28;20112;-68
2023/10/08 06:54:04;;;;;;;1999.90;999.90;;;14.30;99.90;;;;;;5068284;28;20135;-65
2023/10/08 06:56:31;;;;;;;1999.90;999.90;;;14.40;99.90;;;;;;5077412;28;20446;-65
2023/10/08 06:58:59;;;;;;;1999.90;999.90;;;14.40;99.90;;;;;;5070046;28;20060;-65
2023/10/08 07:01:25;;;;;;;1999.90;999.90;;;14.40;99.90;;;;;;5077275;28;20024;-66
2023/10/08 07:03:51;;;;;;;1999.90;999.90;;;14.40;99.90;;;;;;5068189;28;20016;-65
2023/10/08 07:06:26;;;;;;;1999.90;999.90;;;14.40;99.90;;;;;;5075475;28;20409;-66
2023/10/08 07:08:55;;;;;;;1999.90;999.90;;;14.50;99.90;;;;;;5064175;28;20036;-66
2023/10/08 07:11:22;;;;;;;1999.90;999.90;;;14.50;99.90;;;;;;5068824;28;20369;-65
2023/10/08 07:13:48;;;;;;;1999.90;999.90;;;14.50;99.90;;;;;;5067627;28;20082;-65
2023/10/08 07:16:17;;;;;;;1999.90;999.90;;;14.60;99.90;;;;;;5071285;28;20036;-75
2023/10/08 07:18:52;;;;;;;1999.90;999.90;;;14.60;99.90;;;;;;5066117;28;20025;-65
2023/10/08 07:21:23;;;;;;;1999.90;999.90;;;14.60;99.90;;;;;;5067792;28;20017;-65
2023/10/08 07:24:04;;;;;;;1999.90;999.90;;;14.60;99.90;;;;;;5066797;28;20040;-66
2023/10/08 07:26:36;;;;;;;1999.90;999.90;;;14.70;99.90;;;;;;5075242;28;20081;-66
2023/10/08 07:29:09;;;;;;;1999.90;999.90;;;14.70;99.90;;;;;;5070805;28;20063;-65
2023/10/08 07:31:36;;;;;;;1999.90;999.90;;;14.70;99.90;;;;;;5068027;28;20025;-65
2023/10/08 07:34:57;;;;;;;1999.90;999.90;;;14.80;99.90;;;;;;5066975;28;20468;-65
2023/10/08 07:36:51;;;;;;;1999.90;999.90;;;14.80;99.90;;;;;;5066496;28;20052;-65
2023/10/08 07:39:33;;;;;;;1999.90;999.90;;;14.90;99.90;;;;;;5070707;28;20032;-65
2023/10/08 07:42:05;;;;;;;1999.90;999.90;;;14.90;99.90;;;;;;5068491;28;20070;-66
2023/10/08 07:44:31;;;;;;;1999.90;999.90;;;15.00;99.90;;;;;;5067228;28;20435;-65
2023/10/08 07:46:57;;;;;;;1999.90;999.90;;;15.00;99.90;;;;;;5069261;28;20327;-66
2023/10/08 07:49:25;;;;;;;1999.90;999.90;;;15.00;99.90;;;;;;5073206;28;20035;-76
2023/10/08 07:51:54;;;;;;;1999.90;999.90;;;15.00;99.90;;;;;;5113890;28;20325;-66
2023/10/08 07:54:22;;;;;;;1999.90;999.90;;;15.00;99.90;;;;;;5091500;28;20070;-65
2023/10/08 07:56:49;;;;;;;1999.90;999.90;;;15.00;99.90;;;;;;5112849;28;20038;-66
2023/10/08 07:59:16;;;;;;;1999.90;999.90;;;15.10;99.90;;;;;;5109882;28;20415;-65
2023/10/08 08:01:43;;;;;;;1999.90;999.90;;;15.10;99.90;;;;;;5107839;28;20031;-65
2023/10/08 08:04:21;;;;;;;;;;;15.10;99.90;;;;;;5107143;28;20031;-65
2023/10/08 08:06:49;;;;;;;1999.90;999.90;;;15.10;99.90;;;;;;5109402;28;20222;-66
2023/10/08 08:09:23;;;;;;;1999.90;999.90;;;15.20;99.90;;;;;;5112043;28;20479;-65
2023/10/08 08:11:49;;;;;;;1999.90;999.90;;;15.20;99.90;;;;;;5111157;28;20074;-66
2023/10/08 08:14:24;;;;;;;1999.90;999.90;;;15.20;99.90;;;;;;5092668;28;20047;-66
2023/10/08 08:16:50;;;;;;;1999.90;999.90;;;15.20;99.90;;;;;;5110829;28;20020;-66
2023/10/08 08:19:17;;;;;;;1999.90;999.90;;;15.20;99.90;;;;;;5110866;28;20067;-66
2023/10/08 08:21:45;;;;;;;1999.90;999.90;;;15.20;99.90;;;;;;5112923;28;20418;-65
2023/10/08 08:24:28;;;;;;;1999.90;999.90;;;15.20;99.90;;;;;;5112717;28;20295;-66
2023/10/08 08:27:07;;;;;;;1999.90;999.90;;;15.30;99.90;;;;;;5111281;28;20115;-66
2023/10/08 08:29:44;;;;;;;1999.90;999.90;;;15.30;99.90;;;;;;5110247;28;20388;-66
2023/10/08 08:32:12;;;;;;;1999.90;999.90;;;15.40;99.90;;;;;;5108913;28;20410;-66
2023/10/08 08:34:43;;;;;;;1999.90;999.90;;;15.40;99.90;;;;;;5107099;27;20418;-66
2023/10/08 08:37:11;;;;;;;1999.90;999.90;;;15.40;99.90;;;;;;5109140;27;20028;-66
2023/10/08 08:39:37;;;;;;;1999.90;999.90;;;15.40;99.90;;;;;;5116431;27;20446;-77
2023/10/08 08:42:07;;;;;;;1999.90;999.90;;;15.40;99.90;;;;;;5114468;27;20062;-66
2023/10/08 08:44:39;;;;;;;1999.90;999.90;;;15.30;99.90;;;;;;5112100;27;20041;-67
2023/10/08 08:47:06;;;;;;;1999.90;999.90;;;15.40;99.90;;;;;;5112410;27;20093;-66
2023/10/08 08:49:37;;;;;;;1999.90;999.90;;;15.40;99.90;;;;;;5116218;27;20050;-74
2023/10/08 08:52:04;;;;;;;1999.90;999.90;;;15.30;99.90;;;;;;5111648;27;20399;-66
2023/10/08 08:54:32;;;;;;;1999.90;999.90;;;15.30;99.90;;;;;;5092675;28;20032;-66
2023/10/08 08:57:04;;;;;;;1999.90;999.90;;;15.30;99.90;;;;;;5103249;28;20039;-67
2023/10/08 08:59:30;;;;;;;1999.90;999.90;;;15.30;99.90;;;;;;5094638;27;20016;-66
2023/10/08 09:02:00;;;;;;;1999.90;999.90;;;15.50;99.90;;;;;;5114083;27;20024;-76
2023/10/08 09:04:32;;;;;;;1999.90;999.90;;;15.60;99.90;;;;;;5104530;28;20054;-76
2023/10/08 09:07:04;;;;;;;1999.90;999.90;;;15.80;99.90;;;;;;5111388;27;20031;-66
2023/10/08 09:09:39;;;;;;;1999.90;999.90;;;16.00;99.90;;;;;;5112650;27;20027;-66
2023/10/08 09:12:05;;;;;;;1999.90;999.90;;;16.10;99.90;;;;;;5115733;27;20107;-66
2023/10/08 09:14:32;;;;;;;1999.90;999.90;;;16.20;99.90;;;;;;5118589;27;20032;-66
2023/10/08 09:16:59;;;;;;;1999.90;999.90;;;16.40;99.90;;;;;;5102346;28;20438;-66
2023/10/08 09:19:25;;;;;;;1999.90;999.90;;;16.40;99.90;;;;;;5101352;28;20047;-66
2023/10/08 09:22:11;;;;;;;1999.90;999.90;;;16.40;99.90;;;;;;5113671;27;20058;-66
2023/10/08 09:24:41;;;;;;;;;;;16.50;99.90;;;;;;5106258;28;20356;-67
2023/10/08 09:27:07;;;;;;;1999.90;999.90;;;16.50;99.90;;;;;;5117927;27;19911;-66
2023/10/08 09:29:39;;;;;;;;;;;16.60;99.90;;;;;;5114766;27;20031;-67
2023/10/08 09:32:07;;;;;;;1999.90;999.90;;;16.60;99.90;;;;;;5095794;28;19911;-67
2023/10/08 09:34:33;;;;;;;1999.90;999.90;;;16.60;99.90;;;;;;5106649;27;20334;-67
2023/10/08 09:37:01;;;;;;;1999.90;999.90;;;16.70;99.90;;;;;;5110197;27;20030;-66
2023/10/08 09:39:34;;;;;;;1999.90;999.90;;;16.70;99.90;;;;;;5120347;27;20026;-80
2023/10/08 09:42:11;;;;;;;1999.90;999.90;;;16.80;99.90;;;;;;5104763;27;20027;-67
2023/10/08 09:44:37;;;;;;;1999.90;999.90;;;16.80;99.90;;;;;;5111369;27;20317;-67
2023/10/08 09:47:05;;;;;;;1999.90;999.90;;;16.80;99.90;;;;;;5107908;27;20099;-67
2023/10/08 09:49:38;;;;;;;1999.90;999.90;;;16.90;99.90;;;;;;5100477;27;20130;-67
2023/10/08 09:52:06;;;;;;;1999.90;999.90;;;17.00;99.90;;;;;;5110476;27;20059;-77
2023/10/08 09:55:15;;;;;;;1999.90;999.90;;;17.10;99.90;;;;;;5110897;28;20030;-77
2023/10/08 09:57:41;;;;;;;1999.90;999.90;;;17.10;99.90;;;;;;5031177;28;20025;-67
2023/10/08 10:00:18;;;;;;;1999.90;999.90;;;17.10;99.90;;;;;;5043369;28;20045;-75
2023/10/08 10:02:46;;;;;;;1999.90;999.90;;;17.20;99.90;;;;;;5030148;28;20064;-76
2023/10/08 10:05:12;;;;;;;1999.90;999.90;;;17.30;99.90;;;;;;5031841;28;20045;-66
2023/10/08 10:07:43;;;;;;;1999.90;999.90;;;17.50;99.90;;;;;;5035433;28;20033;-66
2023/10/08 10:10:47;;;;;;;1999.90;999.90;;;17.60;99.90;;;;;;5037746;28;20132;-66
2023/10/08 10:13:15;;;;;;;1999.90;999.90;;;17.50;99.90;;;;;;4999715;28;20037;-66
2023/10/08 10:15:43;;;;;;;1999.90;999.90;;;17.50;99.90;;;;;;4999114;28;20038;-66
2023/10/08 10:18:29;;;;;;;1999.90;999.90;;;17.50;99.90;;;;;;4993336;28;20022;-66
2023/10/08 10:21:12;;;;;;;1999.90;999.90;;;17.40;99.90;;;;;;5001848;28;20433;-76
2023/10/08 10:23:45;;;;;;;1999.90;999.90;;;17.50;99.90;;;;;;4995083;28;20136;-66
2023/10/08 10:26:33;;;;;;;1999.90;999.90;;;17.50;99.90;;;;;;5002454;28;20030;-67
2023/10/08 10:29:11;;;;;;;1999.90;999.90;;;17.50;99.90;;;;;;5041764;28;20045;-66
2023/10/08 10:31:47;;;;;;;1999.90;999.90;;;17.50;99.90;;;;;;5051011;28;20065;-79
2023/10/08 10:34:16;;;;;;;1999.90;999.90;;;17.40;99.90;;;;;;5042403;28;20045;-67
2023/10/08 10:36:43;;;;;;;1999.90;999.90;;;17.40;99.90;;;;;;5053064;28;20040;-67
2023/10/08 10:39:32;;;;;;;1999.90;999.90;;;17.50;99.90;;;;;;5055618;28;20489;-67
2023/10/08 10:42:06;;;;;;;1999.90;999.90;;;17.60;99.90;;;;;;5049771;28;20068;-68
2023/10/08 10:44:36;;;;;;;1999.90;999.90;;;17.70;99.90;;;;;;5047081;28;20112;-67
2023/10/08 10:52:31;;;;;;;1999.90;999.90;;;17.90;99.90;;;;;;5112505;27;20074;-66
2023/10/08 10:55:18;;;;;;;1999.90;999.90;;;17.90;99.90;;;;;;5112857;27;20325;-67
2023/10/08 10:58:04;;;;;;;1999.90;999.90;;;17.90;99.90;;;;;;5113843;27;20318;-67
2023/10/08 11:03:02;;;;;;;1999.90;999.90;;;17.80;99.90;;;;;;5106042;27;20023;-66
2023/10/08 11:05:37;;;;;;;1999.90;999.90;;;17.80;99.90;;;;;;5101691;27;20032;-67
2023/10/08 11:08:07;;;;;;;1999.90;999.90;;;17.80;99.90;;;;;;5116096;27;20120;-67
2023/10/08 11:10:34;;;;;;;1999.90;999.90;;;17.70;99.90;;;;;;5113502;27;20073;-66
2023/10/08 11:13:01;;;;;;;1999.90;999.90;;;17.60;99.90;;;;;;5108634;27;20546;-66
2023/10/08 11:15:40;;;;;;;1999.90;999.90;;;17.50;99.90;;;;;;5107106;27;20122;-77
2023/10/08 11:18:10;;;;;;;1999.90;999.90;;;17.40;99.90;;;;;;5111364;27;20119;-66
2023/10/08 11:20:45;;;;;;;1999.90;999.90;;;17.30;99.90;;;;;;5114293;27;20420;-67
2023/10/08 11:23:29;;;;;;;1999.90;999.90;;;17.30;99.90;;;;;;5098630;28;20046;-66
2023/10/08 11:26:02;;;;;;;1999.90;999.90;;;17.40;99.90;;;;;;5121017;27;20032;-67
2023/10/08 11:28:41;;;;;;;1999.90;999.90;;;17.50;99.90;;;;;;5089375;28;20114;-66
2023/10/08 11:31:10;;;;;;;1999.90;999.90;;;17.60;99.90;;;;;;5109350;27;20031;-72
2023/10/08 11:33:40;;;;;;;1999.90;999.90;;;17.60;99.90;;;;;;5106878;27;20043;-77
2023/10/08 11:36:27;;;;;;;1999.90;999.90;;;17.60;99.90;;;;;;5117577;27;20381;-67
2023/10/08 11:39:00;;;;;;;1999.90;999.90;;;17.60;99.90;;;;;;5121879;27;20385;-78
2023/10/08 11:41:27;;;;;;;1999.90;999.90;;;17.50;99.90;;;;;;5117452;27;20072;-67
2023/10/08 11:43:58;;;;;;;1999.90;999.90;;;17.50;99.90;;;;;;5111096;27;20047;-79
2023/10/08 11:46:40;;;;;;;1999.90;999.90;;;17.50;99.90;;;;;;5097288;28;20062;-76
2023/10/08 11:49:06;;;;;;;1999.90;999.90;;;17.60;99.90;;;;;;5088139;28;20034;-66
2023/10/08 11:51:33;;;;;;;1999.90;999.90;;;17.60;99.90;;;;;;5108759;27;20024;-66
2023/10/08 11:54:05;;;;;;;1999.90;999.90;;;17.60;99.90;;;;;;5108840;28;20030;-68
2023/10/08 11:56:33;;;;;;;1999.90;999.90;;;17.60;99.90;;;;;;5110912;28;20050;-67
2023/10/08 11:59:01;;;;;;;1999.90;999.90;;;17.60;99.90;;;;;;5109904;27;20054;-66
2023/10/08 12:01:27;;;;;;;1999.90;999.90;;;17.60;99.90;;;;;;5109588;27;20115;-77
2023/10/08 12:03:59;;;;;;;1999.90;999.90;;;17.50;99.90;;;;;;5109515;28;20099;-66
2023/10/08 12:06:29;;;;;;;1999.90;999.90;;;17.50;99.90;;;;;;5089838;28;20304;-67
2023/10/08 12:08:58;;;;;;;1999.90;999.90;;;17.50;99.90;;;;;;5106324;28;20411;-66
2023/10/08 12:11:30;;;;;;;1999.90;999.90;;;17.40;99.90;;;;;;5086284;28;20065;-66
2023/10/08 12:13:58;;;;;;;1999.90;999.90;;;17.40;99.90;;;;;;5111761;27;20027;-66
2023/10/08 12:16:26;;;;;;;1999.90;999.90;;;17.50;99.90;;;;;;5110257;27;20039;-66
2023/10/08 12:18:58;;;;;;;1999.90;999.90;;;17.50;99.90;;;;;;5112419;27;20163;-66
2023/10/08 12:21:31;;;;;;;1999.90;999.90;;;17.50;99.90;;;;;;5110047;27;20375;-66
2023/10/08 12:24:05;;;;;;;1999.90;999.90;;;17.40;99.90;;;;;;5108675;27;20030;-67
2023/10/08 12:26:31;;;;;;;1999.90;999.90;;;17.40;99.90;;;;;;5091671;28;20028;-66
2023/10/08 12:28:57;;;;;;;1999.90;999.90;;;17.30;99.90;;;;;;5108222;28;20020;-67
2023/10/08 12:31:23;;;;;;;1999.90;999.90;;;17.40;99.90;;;;;;5107513;27;20039;-66
2023/10/08 12:34:00;;;;;;;1999.90;999.90;;;17.40;99.90;;;;;;5113705;27;20038;-66
2023/10/08 12:36:36;;;;;;;1999.90;999.90;;;17.40;99.90;;;;;;5117420;27;20066;-66
2023/10/08 12:39:28;;;;;;;1999.90;999.90;;;17.40;99.90;;;;;;5112381;27;20020;-66
2023/10/08 12:41:48;;;;;;;1999.90;999.90;;;17.40;99.90;;;;;;5109003;27;20032;-66
2023/10/08 12:44:15;;;;;;;1999.90;999.90;;;17.40;99.90;;;;;;5119331;27;20031;-66
2023/10/08 12:46:43;;;;;;;1999.90;999.90;;;17.30;99.90;;;;;;5108828;28;20035;-66
2023/10/08 12:49:09;;;;;;;1999.90;999.90;;;17.30;99.90;;;;;;5110073;27;20036;-67
2023/10/08 12:51:36;;;;;;;1999.90;999.90;;;17.30;99.90;;;;;;5109515;27;20590;-77
2023/10/08 12:54:10;;;;;;;1999.90;999.90;;;17.20;99.90;;;;;;5091670;28;20024;-67
2023/10/08 12:56:44;;;;;;;1999.90;999.90;;;17.20;99.90;;;;;;5113069;27;20115;-66
2023/10/08 12:59:20;;;;;;;1999.90;999.90;;;17.20;99.90;;;;;;5107391;28;20410;-67
2023/10/08 13:01:53;;;;;;;1999.90;999.90;;;17.30;99.90;;;;;;5111708;27;20072;-66
2023/10/08 13:04:34;;;;;;;1999.90;999.90;;;17.40;99.90;;;;;;5114263;27;20353;-66
2023/10/08 13:07:03;;;;;;;1999.90;999.90;;;17.40;99.90;;;;;;5105694;28;20042;-67
2023/10/08 13:09:31;;;;;;;1999.90;999.90;;;17.40;99.90;;;;;;5118869;27;20032;-66
2023/10/08 13:11:59;;;;;;;1999.90;999.90;;;17.40;99.90;;;;;;5103955;27;20138;-68
2023/10/08 13:14:25;;;;;;;1999.90;999.90;;;17.50;99.90;;;;;;5093949;28;20039;-66
2023/10/08 13:16:53;;;;;;;1999.90;999.90;;;17.50;99.90;;;;;;5107381;27;20023;-66
2023/10/08 13:19:20;;;;;;;1999.90;999.90;;;17.50;99.90;;;;;;5110296;27;20027;-78
2023/10/08 13:21:45;;;;;;;1999.90;999.90;;;17.50;99.90;;;;;;5115400;27;20031;-77
2023/10/08 13:24:12;;;;;;;1999.90;999.90;;;17.40;99.90;;;;;;5109022;27;20023;-66
2023/10/08 13:26:38;;;;;;;;;;;17.50;99.90;;;;;;5110146;27;20756;-66